sensor_id;sensor_type;location;lat;lon;timestamp;P1;durP1;ratioP1;P2;durP2;ratioP2
55710;SDS011;41612;51.994;5.880;2023-02-28T00:01:23;5.00;;;3.17;;
55710;SDS011;41612;51.994;5.880;2023-02-28T00:03:50;6.10;;;3.22;;
55710;SDS011;41612;51.994;5.880;2023-02-28T00:06:16;7.85;;;3.13;;
55710;SDS011;41612;51.994;5.880;2023-02-28T00:08:45;7.18;;;3.17;;
55710;SDS011;41612;51.994;5.880;2023-02-28T00:11:14;4.63;;;3.25;;
55710;SDS011;41612;51.994;5.880;2023-02-28T00:13:41;5.55;;;3.95;;
55710;SDS011;41612;51.994;5.880;2023-02-28T00:16:12;4.05;;;2.75;;
55710;SDS011;41612;51.994;5.880;2023-02-28T00:18:39;6.55;;;3.25;;
55710;SDS011;41612;51.994;5.880;2023-02-28T00:21:08;5.68;;;3.28;;
55710;SDS011;41612;51.994;5.880;2023-02-28T00:23:34;6.43;;;3.53;;
55710;SDS011;41612;51.994;5.880;2023-02-28T00:26:00;7.70;;;3.58;;
55710;SDS011;41612;51.994;5.880;2023-02-28T00:28:26;5.78;;;4.00;;
55710;SDS011;41612;51.994;5.880;2023-02-28T00:30:54;5.13;;;3.10;;
55710;SDS011;41612;51.994;5.880;2023-02-28T00:33:22;7.07;;;3.95;;
55710;SDS011;41612;51.994;5.880;2023-02-28T00:35:48;5.97;;;3.15;;
55710;SDS011;41612;51.994;5.880;2023-02-28T00:38:14;4.47;;;2.83;;
55710;SDS011;41612;51.994;5.880;2023-02-28T00:40:40;5.80;;;2.85;;
55710;SDS011;41612;51.994;5.880;2023-02-28T00:43:06;6.07;;;3.08;;
55710;SDS011;41612;51.994;5.880;2023-02-28T00:45:32;6.57;;;3.30;;
55710;SDS011;41612;51.994;5.880;2023-02-28T00:47:58;6.30;;;3.38;;
55710;SDS011;41612;51.994;5.880;2023-02-28T00:50:23;6.15;;;3.13;;
55710;SDS011;41612;51.994;5.880;2023-02-28T00:52:50;4.07;;;2.63;;
55710;SDS011;41612;51.994;5.880;2023-02-28T00:55:19;7.55;;;3.38;;
55710;SDS011;41612;51.994;5.880;2023-02-28T00:57:44;7.20;;;2.80;;
55710;SDS011;41612;51.994;5.880;2023-02-28T01:00:10;4.95;;;3.00;;
55710;SDS011;41612;51.994;5.880;2023-02-28T01:02:41;5.80;;;3.28;;
55710;SDS011;41612;51.994;5.880;2023-02-28T01:05:07;6.80;;;3.92;;
55710;SDS011;41612;51.994;5.880;2023-02-28T01:07:33;5.70;;;4.28;;
55710;SDS011;41612;51.994;5.880;2023-02-28T01:09:59;4.63;;;3.08;;
55710;SDS011;41612;51.994;5.880;2023-02-28T01:12:27;5.60;;;3.05;;
55710;SDS011;41612;51.994;5.880;2023-02-28T01:14:56;4.57;;;2.85;;
55710;SDS011;41612;51.994;5.880;2023-02-28T01:17:22;5.80;;;3.08;;
55710;SDS011;41612;51.994;5.880;2023-02-28T01:19:48;7.22;;;3.38;;
55710;SDS011;41612;51.994;5.880;2023-02-28T01:22:14;4.65;;;2.97;;
55710;SDS011;41612;51.994;5.880;2023-02-28T01:24:41;5.53;;;3.55;;
55710;SDS011;41612;51.994;5.880;2023-02-28T01:27:06;7.15;;;3.40;;
55710;SDS011;41612;51.994;5.880;2023-02-28T01:29:38;5.50;;;2.92;;
55710;SDS011;41612;51.994;5.880;2023-02-28T01:32:04;4.80;;;3.10;;
55710;SDS011;41612;51.994;5.880;2023-02-28T01:34:30;6.28;;;3.20;;
55710;SDS011;41612;51.994;5.880;2023-02-28T01:36:56;3.85;;;2.60;;
55710;SDS011;41612;51.994;5.880;2023-02-28T01:39:26;6.00;;;3.50;;
55710;SDS011;41612;51.994;5.880;2023-02-28T01:41:52;5.63;;;3.42;;
55710;SDS011;41612;51.994;5.880;2023-02-28T01:47:21;4.90;;;3.22;;
55710;SDS011;41612;51.994;5.880;2023-02-28T01:49:49;7.05;;;3.47;;
55710;SDS011;41612;51.994;5.880;2023-02-28T01:52:16;7.15;;;3.45;;
55710;SDS011;41612;51.994;5.880;2023-02-28T01:54:45;4.45;;;2.63;;
55710;SDS011;41612;51.994;5.880;2023-02-28T01:57:19;7.78;;;3.30;;
55710;SDS011;41612;51.994;5.880;2023-02-28T02:02:23;5.78;;;3.40;;
55710;SDS011;41612;51.994;5.880;2023-02-28T02:04:54;4.50;;;3.20;;
55710;SDS011;41612;51.994;5.880;2023-02-28T02:07:45;6.80;;;3.10;;
55710;SDS011;41612;51.994;5.880;2023-02-28T02:10:15;5.28;;;3.03;;
55710;SDS011;41612;51.994;5.880;2023-02-28T02:18:10;5.95;;;3.22;;
55710;SDS011;41612;51.994;5.880;2023-02-28T02:32:10;6.75;;;3.85;;
55710;SDS011;41612;51.994;5.880;2023-02-28T02:35:12;7.50;;;3.13;;
55710;SDS011;41612;51.994;5.880;2023-02-28T02:40:17;7.03;;;4.70;;
55710;SDS011;41612;51.994;5.880;2023-02-28T02:43:08;9.98;;;4.65;;
55710;SDS011;41612;51.994;5.880;2023-02-28T02:45:52;6.55;;;3.92;;
55710;SDS011;41612;51.994;5.880;2023-02-28T02:48:28;15.55;;;4.78;;
55710;SDS011;41612;51.994;5.880;2023-02-28T02:50:58;8.57;;;3.35;;
55710;SDS011;41612;51.994;5.880;2023-02-28T02:53:30;6.20;;;3.55;;
55710;SDS011;41612;51.994;5.880;2023-02-28T02:56:01;7.43;;;3.05;;
55710;SDS011;41612;51.994;5.880;2023-02-28T02:58:31;6.00;;;3.50;;
55710;SDS011;41612;51.994;5.880;2023-02-28T03:01:00;5.35;;;3.20;;
55710;SDS011;41612;51.994;5.880;2023-02-28T03:03:30;4.70;;;3.33;;
55710;SDS011;41612;51.994;5.880;2023-02-28T03:06:01;5.32;;;2.80;;
55710;SDS011;41612;51.994;5.880;2023-02-28T03:08:34;4.32;;;2.90;;
55710;SDS011;41612;51.994;5.880;2023-02-28T03:11:03;6.30;;;4.13;;
55710;SDS011;41612;51.994;5.880;2023-02-28T03:16:31;7.65;;;3.90;;
55710;SDS011;41612;51.994;5.880;2023-02-28T03:19:30;5.88;;;3.40;;
55710;SDS011;41612;51.994;5.880;2023-02-28T03:32:56;7.10;;;3.92;;
55710;SDS011;41612;51.994;5.880;2023-02-28T03:35:34;6.35;;;3.40;;
55710;SDS011;41612;51.994;5.880;2023-02-28T03:38:08;5.28;;;2.72;;
55710;SDS011;41612;51.994;5.880;2023-02-28T03:40:50;7.07;;;3.45;;
55710;SDS011;41612;51.994;5.880;2023-02-28T03:43:23;5.82;;;3.25;;
55710;SDS011;41612;51.994;5.880;2023-02-28T03:45:53;4.15;;;3.05;;
55710;SDS011;41612;51.994;5.880;2023-02-28T03:48:26;6.32;;;3.00;;
55710;SDS011;41612;51.994;5.880;2023-02-28T03:51:01;4.38;;;2.83;;
55710;SDS011;41612;51.994;5.880;2023-02-28T03:53:36;4.70;;;2.60;;
55710;SDS011;41612;51.994;5.880;2023-02-28T03:59:10;6.00;;;2.05;;
55710;SDS011;41612;51.994;5.880;2023-02-28T04:01:43;3.90;;;3.08;;
55710;SDS011;41612;51.994;5.880;2023-02-28T04:04:11;4.50;;;2.67;;
55710;SDS011;41612;51.994;5.880;2023-02-28T04:06:39;7.53;;;2.90;;
55710;SDS011;41612;51.994;5.880;2023-02-28T04:09:06;5.85;;;2.70;;
55710;SDS011;41612;51.994;5.880;2023-02-28T04:14:04;5.40;;;2.60;;
55710;SDS011;41612;51.994;5.880;2023-02-28T04:16:34;5.65;;;2.92;;
55710;SDS011;41612;51.994;5.880;2023-02-28T04:19:05;5.45;;;2.60;;
55710;SDS011;41612;51.994;5.880;2023-02-28T04:21:34;4.82;;;2.85;;
55710;SDS011;41612;51.994;5.880;2023-02-28T04:24:01;4.97;;;2.28;;
55710;SDS011;41612;51.994;5.880;2023-02-28T04:26:34;3.90;;;2.30;;
55710;SDS011;41612;51.994;5.880;2023-02-28T04:29:02;4.40;;;2.83;;
55710;SDS011;41612;51.994;5.880;2023-02-28T04:31:30;4.47;;;2.15;;
55710;SDS011;41612;51.994;5.880;2023-02-28T04:33:58;4.38;;;2.38;;
55710;SDS011;41612;51.994;5.880;2023-02-28T04:36:25;3.50;;;2.00;;
55710;SDS011;41612;51.994;5.880;2023-02-28T04:38:51;4.75;;;3.40;;
55710;SDS011;41612;51.994;5.880;2023-02-28T04:41:17;4.13;;;2.50;;
55710;SDS011;41612;51.994;5.880;2023-02-28T04:43:44;3.83;;;2.33;;
55710;SDS011;41612;51.994;5.880;2023-02-28T04:46:10;4.38;;;2.50;;
55710;SDS011;41612;51.994;5.880;2023-02-28T04:48:38;3.80;;;2.58;;
55710;SDS011;41612;51.994;5.880;2023-02-28T04:51:08;4.90;;;3.13;;
55710;SDS011;41612;51.994;5.880;2023-02-28T04:53:35;3.55;;;2.47;;
55710;SDS011;41612;51.994;5.880;2023-02-28T04:56:02;4.72;;;2.30;;
55710;SDS011;41612;51.994;5.880;2023-02-28T04:58:32;4.28;;;2.45;;
55710;SDS011;41612;51.994;5.880;2023-02-28T05:01:02;5.28;;;2.70;;
55710;SDS011;41612;51.994;5.880;2023-02-28T05:03:30;5.32;;;2.83;;
55710;SDS011;41612;51.994;5.880;2023-02-28T05:05:55;3.80;;;2.60;;
55710;SDS011;41612;51.994;5.880;2023-02-28T05:08:21;4.32;;;2.33;;
55710;SDS011;41612;51.994;5.880;2023-02-28T05:10:47;4.50;;;2.25;;
55710;SDS011;41612;51.994;5.880;2023-02-28T05:13:13;3.65;;;2.47;;
55710;SDS011;41612;51.994;5.880;2023-02-28T05:15:41;4.18;;;2.17;;
55710;SDS011;41612;51.994;5.880;2023-02-28T05:18:09;5.90;;;3.22;;
55710;SDS011;41612;51.994;5.880;2023-02-28T05:20:35;4.93;;;2.70;;
55710;SDS011;41612;51.994;5.880;2023-02-28T05:23:05;4.07;;;2.42;;
55710;SDS011;41612;51.994;5.880;2023-02-28T05:25:33;4.18;;;3.20;;
55710;SDS011;41612;51.994;5.880;2023-02-28T05:27:59;4.93;;;2.38;;
55710;SDS011;41612;51.994;5.880;2023-02-28T05:30:25;4.97;;;2.40;;
55710;SDS011;41612;51.994;5.880;2023-02-28T05:32:51;4.53;;;2.40;;
55710;SDS011;41612;51.994;5.880;2023-02-28T05:35:17;4.05;;;2.30;;
55710;SDS011;41612;51.994;5.880;2023-02-28T05:37:43;4.95;;;2.70;;
55710;SDS011;41612;51.994;5.880;2023-02-28T05:40:09;5.20;;;2.22;;
55710;SDS011;41612;51.994;5.880;2023-02-28T05:42:38;4.28;;;2.65;;
55710;SDS011;41612;51.994;5.880;2023-02-28T05:45:07;3.80;;;2.45;;
55710;SDS011;41612;51.994;5.880;2023-02-28T05:47:34;3.80;;;2.35;;
55710;SDS011;41612;51.994;5.880;2023-02-28T05:50:02;5.07;;;2.22;;
55710;SDS011;41612;51.994;5.880;2023-02-28T05:52:29;5.22;;;2.65;;
55710;SDS011;41612;51.994;5.880;2023-02-28T05:54:55;4.90;;;2.13;;
55710;SDS011;41612;51.994;5.880;2023-02-28T05:57:24;4.38;;;2.38;;
55710;SDS011;41612;51.994;5.880;2023-02-28T05:59:52;5.22;;;2.55;;
55710;SDS011;41612;51.994;5.880;2023-02-28T06:02:21;3.72;;;2.35;;
55710;SDS011;41612;51.994;5.880;2023-02-28T06:04:49;2.88;;;2.10;;
55710;SDS011;41612;51.994;5.880;2023-02-28T06:07:15;3.53;;;2.10;;
55710;SDS011;41612;51.994;5.880;2023-02-28T06:09:42;3.72;;;1.95;;
55710;SDS011;41612;51.994;5.880;2023-02-28T06:12:09;3.83;;;2.05;;
55710;SDS011;41612;51.994;5.880;2023-02-28T06:14:35;4.60;;;2.40;;
55710;SDS011;41612;51.994;5.880;2023-02-28T06:17:02;3.22;;;1.85;;
55710;SDS011;41612;51.994;5.880;2023-02-28T06:19:28;4.32;;;2.15;;
55710;SDS011;41612;51.994;5.880;2023-02-28T06:21:58;4.35;;;2.30;;
55710;SDS011;41612;51.994;5.880;2023-02-28T06:24:25;2.97;;;2.10;;
55710;SDS011;41612;51.994;5.880;2023-02-28T06:27:00;4.38;;;1.90;;
55710;SDS011;41612;51.994;5.880;2023-02-28T06:29:33;2.28;;;1.50;;
55710;SDS011;41612;51.994;5.880;2023-02-28T06:32:00;4.05;;;2.00;;
55710;SDS011;41612;51.994;5.880;2023-02-28T06:34:29;3.45;;;2.15;;
55710;SDS011;41612;51.994;5.880;2023-02-28T06:36:54;3.33;;;1.88;;
55710;SDS011;41612;51.994;5.880;2023-02-28T06:39:20;3.80;;;1.90;;
55710;SDS011;41612;51.994;5.880;2023-02-28T06:41:49;5.00;;;1.95;;
55710;SDS011;41612;51.994;5.880;2023-02-28T06:44:21;3.00;;;1.92;;
55710;SDS011;41612;51.994;5.880;2023-02-28T06:46:56;3.47;;;1.52;;
55710;SDS011;41612;51.994;5.880;2023-02-28T06:49:39;6.88;;;3.22;;
55710;SDS011;41612;51.994;5.880;2023-02-28T06:52:15;4.72;;;1.95;;
55710;SDS011;41612;51.994;5.880;2023-02-28T06:55:06;4.10;;;2.08;;
55710;SDS011;41612;51.994;5.880;2023-02-28T06:57:43;2.80;;;1.55;;
55710;SDS011;41612;51.994;5.880;2023-02-28T07:02:47;3.03;;;1.85;;
55710;SDS011;41612;51.994;5.880;2023-02-28T07:05:15;3.85;;;1.75;;
55710;SDS011;41612;51.994;5.880;2023-02-28T07:07:42;3.42;;;2.13;;
55710;SDS011;41612;51.994;5.880;2023-02-28T07:10:12;3.80;;;2.08;;
55710;SDS011;41612;51.994;5.880;2023-02-28T07:12:47;3.05;;;1.70;;
55710;SDS011;41612;51.994;5.880;2023-02-28T07:15:24;3.83;;;2.25;;
55710;SDS011;41612;51.994;5.880;2023-02-28T07:17:53;6.43;;;2.22;;
55710;SDS011;41612;51.994;5.880;2023-02-28T07:20:22;3.30;;;1.90;;
55710;SDS011;41612;51.994;5.880;2023-02-28T07:22:53;2.88;;;1.75;;
55710;SDS011;41612;51.994;5.880;2023-02-28T07:28:04;3.10;;;2.08;;
55710;SDS011;41612;51.994;5.880;2023-02-28T07:30:32;3.22;;;1.80;;
55710;SDS011;41612;51.994;5.880;2023-02-28T07:41:09;3.22;;;1.95;;
55710;SDS011;41612;51.994;5.880;2023-02-28T07:43:38;5.95;;;2.35;;
55710;SDS011;41612;51.994;5.880;2023-02-28T07:46:10;4.18;;;2.40;;
55710;SDS011;41612;51.994;5.880;2023-02-28T07:48:48;5.00;;;2.50;;
55710;SDS011;41612;51.994;5.880;2023-02-28T07:51:14;4.15;;;2.40;;
55710;SDS011;41612;51.994;5.880;2023-02-28T07:53:45;3.00;;;1.75;;
55710;SDS011;41612;51.994;5.880;2023-02-28T07:56:14;3.03;;;1.88;;
55710;SDS011;41612;51.994;5.880;2023-02-28T07:58:39;4.03;;;2.22;;
55710;SDS011;41612;51.994;5.880;2023-02-28T08:01:08;6.85;;;2.47;;
55710;SDS011;41612;51.994;5.880;2023-02-28T08:04:11;5.35;;;2.40;;
55710;SDS011;41612;51.994;5.880;2023-02-28T08:06:42;5.00;;;2.70;;
55710;SDS011;41612;51.994;5.880;2023-02-28T08:09:14;7.68;;;2.70;;
55710;SDS011;41612;51.994;5.880;2023-02-28T08:11:46;4.00;;;2.08;;
55710;SDS011;41612;51.994;5.880;2023-02-28T08:14:16;6.10;;;2.50;;
55710;SDS011;41612;51.994;5.880;2023-02-28T08:16:42;4.57;;;2.65;;
55710;SDS011;41612;51.994;5.880;2023-02-28T08:19:14;4.97;;;2.42;;
55710;SDS011;41612;51.994;5.880;2023-02-28T08:21:43;4.82;;;2.05;;
55710;SDS011;41612;51.994;5.880;2023-02-28T08:24:08;2.88;;;2.13;;
55710;SDS011;41612;51.994;5.880;2023-02-28T08:26:37;4.20;;;2.30;;
55710;SDS011;41612;51.994;5.880;2023-02-28T08:29:08;5.70;;;2.53;;
55710;SDS011;41612;51.994;5.880;2023-02-28T08:31:37;3.78;;;2.50;;
55710;SDS011;41612;51.994;5.880;2023-02-28T08:34:06;6.18;;;2.58;;
55710;SDS011;41612;51.994;5.880;2023-02-28T08:36:36;2.85;;;1.70;;
55710;SDS011;41612;51.994;5.880;2023-02-28T08:39:05;5.00;;;3.97;;
55710;SDS011;41612;51.994;5.880;2023-02-28T08:41:34;3.17;;;2.00;;
55710;SDS011;41612;51.994;5.880;2023-02-28T08:44:00;4.70;;;2.40;;
55710;SDS011;41612;51.994;5.880;2023-02-28T08:46:26;5.40;;;2.28;;
55710;SDS011;41612;51.994;5.880;2023-02-28T08:48:53;3.42;;;1.95;;
55710;SDS011;41612;51.994;5.880;2023-02-28T08:51:22;3.38;;;2.17;;
55710;SDS011;41612;51.994;5.880;2023-02-28T08:53:58;2.72;;;1.88;;
55710;SDS011;41612;51.994;5.880;2023-02-28T10:10:13;3.13;;;1.67;;
55710;SDS011;41612;51.994;5.880;2023-02-28T10:13:04;2.35;;;1.25;;
55710;SDS011;41612;51.994;5.880;2023-02-28T10:15:42;4.75;;;1.55;;
55710;SDS011;41612;51.994;5.880;2023-02-28T10:18:20;3.17;;;2.03;;
55710;SDS011;41612;51.994;5.880;2023-02-28T10:20:51;4.05;;;1.60;;
55710;SDS011;41612;51.994;5.880;2023-02-28T12:11:01;2.92;;;1.52;;
55710;SDS011;41612;51.994;5.880;2023-02-28T12:19:20;2.45;;;1.45;;
55710;SDS011;41612;51.994;5.880;2023-02-28T13:09:13;4.13;;;2.03;;
55710;SDS011;41612;51.994;5.880;2023-02-28T13:11:50;4.00;;;1.95;;
55710;SDS011;41612;51.994;5.880;2023-02-28T13:18:00;16.92;;;4.70;;
55710;SDS011;41612;51.994;5.880;2023-02-28T15:53:19;4.78;;;3.22;;
55710;SDS011;41612;51.994;5.880;2023-02-28T15:59:05;3.22;;;1.63;;
55710;SDS011;41612;51.994;5.880;2023-02-28T16:07:38;3.38;;;2.22;;
55710;SDS011;41612;51.994;5.880;2023-02-28T16:10:44;3.10;;;1.40;;
55710;SDS011;41612;51.994;5.880;2023-02-28T16:13:13;2.88;;;2.00;;
55710;SDS011;41612;51.994;5.880;2023-02-28T16:18:22;2.80;;;1.80;;
55710;SDS011;41612;51.994;5.880;2023-02-28T16:20:55;2.53;;;1.60;;
55710;SDS011;41612;51.994;5.880;2023-02-28T16:34:16;3.33;;;2.20;;
55710;SDS011;41612;51.994;5.880;2023-02-28T17:23:37;7.53;;;3.92;;
55710;SDS011;41612;51.994;5.880;2023-02-28T17:29:01;5.10;;;2.92;;
55710;SDS011;41612;51.994;5.880;2023-02-28T17:32:24;5.10;;;3.25;;
55710;SDS011;41612;51.994;5.880;2023-02-28T17:41:17;8.85;;;5.75;;
55710;SDS011;41612;51.994;5.880;2023-02-28T17:43:45;8.10;;;5.03;;
55710;SDS011;41612;51.994;5.880;2023-02-28T17:46:34;6.80;;;3.97;;
55710;SDS011;41612;51.994;5.880;2023-02-28T17:49:04;7.00;;;4.35;;
55710;SDS011;41612;51.994;5.880;2023-02-28T17:51:30;5.35;;;3.15;;
55710;SDS011;41612;51.994;5.880;2023-02-28T17:53:56;7.78;;;4.90;;
55710;SDS011;41612;51.994;5.880;2023-02-28T17:56:23;7.18;;;4.03;;
55710;SDS011;41612;51.994;5.880;2023-02-28T17:58:51;5.28;;;3.20;;
55710;SDS011;41612;51.994;5.880;2023-02-28T18:01:19;4.75;;;3.05;;
55710;SDS011;41612;51.994;5.880;2023-02-28T18:03:51;8.75;;;4.57;;
55710;SDS011;41612;51.994;5.880;2023-02-28T18:06:38;8.02;;;5.15;;
55710;SDS011;41612;51.994;5.880;2023-02-28T18:09:18;7.13;;;4.15;;
55710;SDS011;41612;51.994;5.880;2023-02-28T18:11:48;5.57;;;3.53;;
55710;SDS011;41612;51.994;5.880;2023-02-28T18:14:15;10.60;;;6.60;;
55710;SDS011;41612;51.994;5.880;2023-02-28T18:16:42;8.35;;;6.25;;
55710;SDS011;41612;51.994;5.880;2023-02-28T18:19:08;10.77;;;8.93;;
55710;SDS011;41612;51.994;5.880;2023-02-28T18:21:54;10.10;;;6.40;;
55710;SDS011;41612;51.994;5.880;2023-02-28T18:24:21;24.55;;;13.50;;
55710;SDS011;41612;51.994;5.880;2023-02-28T18:26:49;23.67;;;15.45;;
55710;SDS011;41612;51.994;5.880;2023-02-28T18:29:20;13.32;;;7.95;;
